createdAt,value
2019-01-06T00:00:12.791Z,6.42
2019-01-06T00:01:00.968Z,5.92
2019-01-06T00:01:54.913Z,6.90
2019-01-06T00:02:51.774Z,7.20
2019-01-06T00:03:46.246Z,6.58
2019-01-06T00:04:49.143Z,6.87
2019-01-06T00:05:41.748Z,7.03
2019-01-06T00:06:35.381Z,6.28
2019-01-06T00:07:28.394Z,6.50
2019-01-06T00:08:14.308Z,6.50
2019-01-06T00:09:10.480Z,6.58
2019-01-06T00:10:04.360Z,6.70
2019-01-06T00:11:10.328Z,6.20
2019-01-06T00:12:09.655Z,5.95
2019-01-06T00:13:12.924Z,6.67
2019-01-06T00:14:06.591Z,6.58
2019-01-06T00:15:06.894Z,5.87
2019-01-06T00:15:59.231Z,6.97
2019-01-06T00:17:04.010Z,7.67
2019-01-06T00:18:03.519Z,6.25
2019-01-06T00:18:55.819Z,6.65
2019-01-06T00:19:50.054Z,6.97
2019-01-06T00:20:42.532Z,6.30
2019-01-06T00:21:39.628Z,6.28
2019-01-06T00:22:35.100Z,6.42
2019-01-06T00:23:29.217Z,5.92
2019-01-06T00:24:38.496Z,5.95
2019-01-06T00:25:31.095Z,6.78
2019-01-06T00:26:43.169Z,6.28
2019-01-06T00:27:35.536Z,6.08
2019-01-06T00:28:28.828Z,6.33
2019-01-06T00:29:19.840Z,6.67
2019-01-06T00:30:12.605Z,6.37
2019-01-06T00:31:09.880Z,5.90
2019-01-06T00:31:56.405Z,6.78
2019-01-06T00:32:52.838Z,6.20
2019-01-06T00:33:50.181Z,6.00
2019-01-06T00:34:36.148Z,5.83
2019-01-06T00:35:40.934Z,6.87
2019-01-06T00:36:40.589Z,5.92
2019-01-06T00:37:40.302Z,6.20
2019-01-06T00:38:42.855Z,6.47
2019-01-06T00:39:45.465Z,6.40
2019-01-06T00:40:39.241Z,6.35
2019-01-06T00:41:31.528Z,7.10
2019-01-06T00:42:35.319Z,6.45
2019-01-06T00:43:28.357Z,7.40
2019-01-06T00:44:36.631Z,6.37
2019-01-06T00:45:36.852Z,6.40
2019-01-06T00:46:37.078Z,6.20
2019-01-06T00:47:40.785Z,6.10
2019-01-06T00:48:40.635Z,6.42
2019-01-06T00:49:34.017Z,6.80
2019-01-06T00:50:32.281Z,6.83
2019-01-06T00:51:35.024Z,7.28
2019-01-06T00:52:29.384Z,6.72
2019-01-06T00:53:21.372Z,7.42
2019-01-06T00:54:21.673Z,6.83
2019-01-06T00:55:27.760Z,6.75
2019-01-06T00:56:20.811Z,6.60
2019-01-06T00:57:20.775Z,7.47
2019-01-06T00:58:13.303Z,6.50
2019-01-06T00:59:00.523Z,7.37
2019-01-06T00:59:45.988Z,7.17
2019-01-06T01:00:40.180Z,7.53
2019-01-06T01:01:37.339Z,7.00
2019-01-06T01:02:34.577Z,7.05
2019-01-06T01:03:34.263Z,8.18
2019-01-06T01:04:27.575Z,7.60
2019-01-06T01:05:24.799Z,7.42
2019-01-06T01:06:16.189Z,7.95
2019-01-06T01:07:21.858Z,7.05
2019-01-06T01:08:15.118Z,7.22
2019-01-06T01:09:14.925Z,7.37
2019-01-06T01:10:21.597Z,7.37
2019-01-06T01:11:15.475Z,7.55
2019-01-06T01:12:18.139Z,7.85
2019-01-06T01:13:11.236Z,7.53
2019-01-06T01:14:07.714Z,6.78
2019-01-06T01:15:14.216Z,7.50
2019-01-06T01:16:06.633Z,7.62
2019-01-06T01:17:15.387Z,8.00
2019-01-06T01:18:08.393Z,7.47
2019-01-06T01:19:11.650Z,7.78
2019-01-06T01:20:11.360Z,7.70
2019-01-06T01:21:04.057Z,7.25
2019-01-06T01:22:10.354Z,8.35
2019-01-06T01:23:03.079Z,7.83
2019-01-06T01:24:02.745Z,7.60
2019-01-06T01:25:03.644Z,7.80
2019-01-06T01:25:48.451Z,7.78
2019-01-06T01:26:51.469Z,7.67
2019-01-06T01:28:02.994Z,8.63
2019-01-06T01:29:12.427Z,8.85
2019-01-06T01:30:11.859Z,8.33
2019-01-06T01:31:04.981Z,8.00
2019-01-06T01:32:07.818Z,8.63
2019-01-06T01:33:11.105Z,7.75
2019-01-06T01:34:09.789Z,8.60
2019-01-06T01:35:07.349Z,8.00
2019-01-06T01:36:01.055Z,8.85
2019-01-06T01:36:53.685Z,8.08
2019-01-06T01:37:46.443Z,8.90
2019-01-06T01:38:36.689Z,8.83
2019-01-06T01:39:39.715Z,8.58
2019-01-06T01:40:31.960Z,8.45
2019-01-06T01:41:20.053Z,8.40
2019-01-06T01:42:23.095Z,8.13
2019-01-06T01:43:16.151Z,8.30
2019-01-06T01:44:10.197Z,7.70
2019-01-06T01:45:11.957Z,8.08
2019-01-06T01:46:05.950Z,7.35
2019-01-06T01:46:51.661Z,8.20
2019-01-06T01:47:43.731Z,7.80
2019-01-06T01:48:45.987Z,7.95
2019-01-06T01:49:57.870Z,7.92
2019-01-06T01:50:52.525Z,7.85
2019-01-06T01:51:43.947Z,7.85
2019-01-06T01:52:34.925Z,8.53
2019-01-06T01:53:27.652Z,8.45
2019-01-06T01:54:17.048Z,7.10
2019-01-06T01:55:09.685Z,8.25
2019-01-06T01:56:11.123Z,8.65
2019-01-06T01:57:10.177Z,7.62
2019-01-06T01:58:02.833Z,7.72
2019-01-06T01:58:55.576Z,7.92
2019-01-06T01:59:49.204Z,7.72
2019-01-06T02:01:01.539Z,7.87
2019-01-06T02:01:55.534Z,7.45
2019-01-06T02:02:47.798Z,7.37
2019-01-06T02:03:53.207Z,7.92
2019-01-06T02:04:49.858Z,7.47
2019-01-06T02:05:37.529Z,8.00
2019-01-06T02:06:28.913Z,8.18
2019-01-06T02:07:25.845Z,7.47
2019-01-06T02:08:18.158Z,7.42
2019-01-06T02:09:10.693Z,7.15
2019-01-06T02:10:23.401Z,7.87
2019-01-06T02:11:23.109Z,8.03
2019-01-06T02:12:29.060Z,7.05
2019-01-06T02:13:33.407Z,8.10
2019-01-06T02:14:30.533Z,7.10
2019-01-06T02:15:22.855Z,7.80
2019-01-06T02:16:25.824Z,7.55
2019-01-06T02:17:35.742Z,7.72
2019-01-06T02:18:41.504Z,7.35
2019-01-06T02:19:46.019Z,7.55
2019-01-06T02:20:35.956Z,7.62
2019-01-06T02:21:29.707Z,7.67
2019-01-06T02:22:23.785Z,7.75
2019-01-06T02:23:20.170Z,7.53
2019-01-06T02:24:07.887Z,7.72
2019-01-06T02:25:20.159Z,7.75
2019-01-06T02:26:23.030Z,8.10
2019-01-06T02:27:15.881Z,7.28
2019-01-06T02:28:16.619Z,7.47
2019-01-06T02:29:10.262Z,8.13
2019-01-06T02:30:11.826Z,7.87
2019-01-06T02:31:04.205Z,7.53
2019-01-06T02:31:57.390Z,7.40
2019-01-06T02:32:50.320Z,8.40
2019-01-06T02:33:40.554Z,8.18
2019-01-06T02:34:33.395Z,7.55
2019-01-06T02:35:26.022Z,7.80
2019-01-06T02:36:22.564Z,7.42
2019-01-06T02:37:14.980Z,7.22
2019-01-06T02:38:27.069Z,8.10
2019-01-06T02:39:20.901Z,7.70
2019-01-06T02:40:17.832Z,7.83
2019-01-06T02:41:10.281Z,8.03
2019-01-06T02:42:10.270Z,8.20
2019-01-06T02:43:02.688Z,7.75
2019-01-06T02:43:52.895Z,7.87
2019-01-06T02:44:55.302Z,8.50
2019-01-06T02:45:50.646Z,8.00
2019-01-06T02:46:44.738Z,8.78
2019-01-06T02:47:47.501Z,8.78
2019-01-06T02:48:41.708Z,8.35
2019-01-06T02:49:33.997Z,8.43
2019-01-06T02:50:27.851Z,8.63
2019-01-06T02:51:24.099Z,7.97
2019-01-06T02:52:16.972Z,8.53
2019-01-06T02:53:20.282Z,8.50
2019-01-06T02:54:19.643Z,7.83
2019-01-06T02:55:12.230Z,8.48
2019-01-06T02:56:24.085Z,8.48
2019-01-06T02:57:23.775Z,8.73
2019-01-06T02:58:26.603Z,8.43
2019-01-06T02:59:19.296Z,9.23
2019-01-06T03:00:12.168Z,7.95
2019-01-06T03:00:58.555Z,8.50
2019-01-06T03:01:51.725Z,7.83
2019-01-06T03:02:43.778Z,8.20
2019-01-06T03:03:37.859Z,8.50
2019-01-06T03:04:44.015Z,8.15
2019-01-06T03:05:43.801Z,8.38
2019-01-06T03:06:55.775Z,7.78
2019-01-06T03:07:44.169Z,8.33
2019-01-06T03:08:50.796Z,8.13
2019-01-06T03:09:47.550Z,7.78
2019-01-06T03:10:39.693Z,7.70
2019-01-06T03:11:39.485Z,7.30
2019-01-06T03:12:35.290Z,7.92
2019-01-06T03:13:41.516Z,8.58
2019-01-06T03:14:23.459Z,7.87
2019-01-06T03:15:15.263Z,8.35
2019-01-06T03:16:07.781Z,9.10
2019-01-06T03:17:05.111Z,7.83
2019-01-06T03:17:58.767Z,8.15
2019-01-06T03:18:52.439Z,7.97
2019-01-06T03:19:53.432Z,7.55
2019-01-06T03:20:45.859Z,7.42
2019-01-06T03:21:42.559Z,8.25
2019-01-06T03:22:45.835Z,8.08
2019-01-06T03:23:42.651Z,8.08
2019-01-06T03:24:54.608Z,7.55
2019-01-06T03:25:52.562Z,7.60
2019-01-06T03:26:50.751Z,7.47
2019-01-06T03:27:50.967Z,8.13
2019-01-06T03:28:51.003Z,7.87
2019-01-06T03:29:53.791Z,8.50
2019-01-06T03:30:58.152Z,7.70
2019-01-06T03:31:52.141Z,8.25
2019-01-06T03:32:58.459Z,7.17
2019-01-06T03:34:01.915Z,8.35
2019-01-06T03:34:55.572Z,7.28
2019-01-06T03:35:50.200Z,7.40
2019-01-06T03:36:42.910Z,7.60
2019-01-06T03:37:36.552Z,7.33
2019-01-06T03:38:28.947Z,8.00
2019-01-06T03:39:25.388Z,8.10
2019-01-06T03:40:29.087Z,7.60
2019-01-06T03:41:29.207Z,7.17
2019-01-06T03:42:23.031Z,7.45
2019-01-06T03:43:19.436Z,8.13
2019-01-06T03:44:15.904Z,7.70
2019-01-06T03:45:13.634Z,7.47
2019-01-06T03:46:10.031Z,7.40
2019-01-06T03:47:02.439Z,7.15
2019-01-06T03:47:54.798Z,7.37
2019-01-06T03:48:54.697Z,6.97
2019-01-06T03:49:44.870Z,7.60
2019-01-06T03:50:53.475Z,7.97
2019-01-06T03:51:46.815Z,7.58
2019-01-06T03:52:55.579Z,7.50
2019-01-06T03:53:49.764Z,8.03
2019-01-06T03:54:46.931Z,7.95
2019-01-06T03:55:40.599Z,7.75
2019-01-06T03:56:50.044Z,8.05
2019-01-06T03:57:42.455Z,7.42
2019-01-06T03:58:36.561Z,7.33
2019-01-06T03:59:45.845Z,7.65
2019-01-06T04:00:39.221Z,7.62
2019-01-06T04:01:31.640Z,7.33
2019-01-06T04:02:24.535Z,8.28
2019-01-06T04:03:33.822Z,7.53
2019-01-06T04:04:30.787Z,7.80
2019-01-06T04:05:28.448Z,7.92
2019-01-06T04:06:20.347Z,7.10
2019-01-06T04:07:23.833Z,6.92
2019-01-06T04:08:29.912Z,7.03
2019-01-06T04:09:38.860Z,7.15
2019-01-06T04:10:31.255Z,7.30
2019-01-06T04:11:24.017Z,7.62
2019-01-06T04:12:20.819Z,7.80
2019-01-06T04:13:33.176Z,8.50
2019-01-06T04:14:26.177Z,7.28
2019-01-06T04:15:12.483Z,7.35
2019-01-06T04:16:15.241Z,7.42
2019-01-06T04:17:08.929Z,6.92
2019-01-06T04:18:12.014Z,7.03
2019-01-06T04:19:04.692Z,8.25
2019-01-06T04:19:58.357Z,7.97
2019-01-06T04:20:50.716Z,7.37
2019-01-06T04:21:50.277Z,7.70
2019-01-06T04:22:42.733Z,7.55
2019-01-06T04:23:39.545Z,8.03
2019-01-06T04:24:37.044Z,8.45
2019-01-06T04:25:38.655Z,7.50
2019-01-06T04:26:39.099Z,7.85
2019-01-06T04:27:32.601Z,7.08
2019-01-06T04:28:30.700Z,8.55
2019-01-06T04:29:19.707Z,7.55
2019-01-06T04:30:12.375Z,8.15
2019-01-06T04:31:04.631Z,8.63
2019-01-06T04:32:10.821Z,8.53
2019-01-06T04:33:20.273Z,7.80
2019-01-06T04:34:14.031Z,8.10
2019-01-06T04:35:06.687Z,8.55
2019-01-06T04:36:00.070Z,7.85
2019-01-06T04:37:06.209Z,9.25
2019-01-06T04:37:58.952Z,9.15
2019-01-06T04:38:55.339Z,8.70
2019-01-06T04:39:44.817Z,9.05
2019-01-06T04:40:37.426Z,8.10
2019-01-06T04:41:34.238Z,8.63
2019-01-06T04:42:27.924Z,8.50
2019-01-06T04:43:23.873Z,8.70
2019-01-06T04:44:23.769Z,8.18
2019-01-06T04:45:21.591Z,8.68
2019-01-06T04:46:21.335Z,8.58
2019-01-06T04:47:14.110Z,8.30
2019-01-06T04:48:26.748Z,7.58
2019-01-06T04:49:23.311Z,8.53
2019-01-06T04:50:20.544Z,9.20
2019-01-06T04:51:13.578Z,8.75
2019-01-06T04:52:13.067Z,9.38
2019-01-06T04:53:11.037Z,8.70
2019-01-06T04:54:08.360Z,8.35
2019-01-06T04:55:00.870Z,9.08
2019-01-06T04:55:58.036Z,8.10
2019-01-06T04:56:50.860Z,8.88
2019-01-06T04:57:50.689Z,8.55
2019-01-06T04:58:38.712Z,9.38
2019-01-06T04:59:36.203Z,9.33
2019-01-06T05:00:28.525Z,9.05
2019-01-06T05:01:21.438Z,9.33
2019-01-06T05:02:18.810Z,8.93
2019-01-06T05:03:11.995Z,9.33
2019-01-06T05:04:05.656Z,9.35
2019-01-06T05:04:59.379Z,8.80
2019-01-06T05:06:02.375Z,9.75
2019-01-06T05:06:55.414Z,8.85
2019-01-06T05:07:48.519Z,9.05
2019-01-06T05:08:41.862Z,8.70
2019-01-06T05:09:34.575Z,9.45
2019-01-06T05:10:34.043Z,9.03
2019-01-06T05:11:26.952Z,8.83
2019-01-06T05:12:32.834Z,8.50
2019-01-06T05:13:42.353Z,8.63
2019-01-06T05:14:43.684Z,8.38
2019-01-06T05:15:36.547Z,8.30
2019-01-06T05:16:28.827Z,7.85
2019-01-06T05:17:21.895Z,8.88
2019-01-06T05:18:21.677Z,9.45
2019-01-06T05:19:14.523Z,8.80
2019-01-06T05:20:14.897Z,9.63
2019-01-06T05:21:07.974Z,8.68
2019-01-06T05:22:02.232Z,8.33
2019-01-06T05:22:55.192Z,9.30
2019-01-06T05:23:49.156Z,9.20
2019-01-06T05:24:42.194Z,9.25
2019-01-06T05:25:36.092Z,9.20
2019-01-06T05:26:45.152Z,9.68
2019-01-06T05:27:50.530Z,9.00
2019-01-06T05:28:42.995Z,9.13
2019-01-06T05:29:36.042Z,9.18
2019-01-06T05:30:41.676Z,8.53
2019-01-06T05:31:38.065Z,9.00
2019-01-06T05:32:28.269Z,9.43
2019-01-06T05:33:24.841Z,9.23
2019-01-06T05:34:30.450Z,9.80
2019-01-06T05:35:22.944Z,9.58
2019-01-06T05:36:28.609Z,9.28
2019-01-06T05:37:29.309Z,9.90
2019-01-06T05:38:24.799Z,19.65
2019-01-06T05:39:24.807Z,18.20
2019-01-06T05:40:22.980Z,13.30
2019-01-06T05:41:17.034Z,11.08
2019-01-06T05:42:26.367Z,10.95
2019-01-06T05:43:23.131Z,11.30
2019-01-06T05:44:13.062Z,9.28
2019-01-06T05:45:07.440Z,9.50
2019-01-06T05:46:00.045Z,9.28
2019-01-06T05:47:06.041Z,9.28
2019-01-06T05:48:06.262Z,8.90
2019-01-06T05:48:58.550Z,9.00
2019-01-06T05:49:48.892Z,8.85
2019-01-06T05:50:41.413Z,10.45
2019-01-06T05:51:44.896Z,10.88
2019-01-06T05:52:37.797Z,10.58
2019-01-06T05:53:40.915Z,9.75
2019-01-06T05:54:50.278Z,10.18
2019-01-06T05:55:38.388Z,9.63
2019-01-06T05:56:38.679Z,10.38
2019-01-06T05:57:33.516Z,10.28
2019-01-06T05:58:36.607Z,11.35
2019-01-06T05:59:36.365Z,10.48
2019-01-06T06:00:32.837Z,10.23
2019-01-06T06:01:25.243Z,9.85
2019-01-06T06:02:21.987Z,10.40
2019-01-06T06:03:14.260Z,9.53
2019-01-06T06:04:07.148Z,9.90
2019-01-06T06:04:59.707Z,10.93
2019-01-06T06:05:49.390Z,9.73
2019-01-06T06:06:42.116Z,10.95
2019-01-06T06:07:37.234Z,10.45
2019-01-06T06:08:31.325Z,11.90
2019-01-06T06:09:24.156Z,11.60
2019-01-06T06:10:10.326Z,10.30
2019-01-06T06:11:02.624Z,9.50
2019-01-06T06:11:55.547Z,8.80
2019-01-06T06:12:47.987Z,9.38
2019-01-06T06:13:47.492Z,8.70
2019-01-06T06:14:40.736Z,8.68
2019-01-06T06:15:40.815Z,8.15
2019-01-06T06:16:33.728Z,9.25
2019-01-06T06:17:25.040Z,9.48
2019-01-06T06:18:37.523Z,8.95
2019-01-06T06:19:30.226Z,8.98
2019-01-06T06:20:18.438Z,8.20
2019-01-06T06:21:18.287Z,8.58
2019-01-06T06:22:11.300Z,8.10
2019-01-06T06:23:05.205Z,8.98
2019-01-06T06:24:05.391Z,9.00
2019-01-06T06:24:47.921Z,8.53
2019-01-06T06:25:50.522Z,8.53
2019-01-06T06:26:42.572Z,9.08
2019-01-06T06:27:51.400Z,8.48
2019-01-06T06:28:52.706Z,9.05
2019-01-06T06:29:55.263Z,9.05
2019-01-06T06:30:48.195Z,9.70
2019-01-06T06:31:42.691Z,9.48
2019-01-06T06:32:42.878Z,9.45
2019-01-06T06:33:36.574Z,10.38
2019-01-06T06:34:27.372Z,9.85
2019-01-06T06:35:19.727Z,9.15
2019-01-06T06:36:08.553Z,9.03
2019-01-06T06:37:08.814Z,9.25
2019-01-06T06:38:12.295Z,9.70
2019-01-06T06:39:06.710Z,10.00
2019-01-06T06:40:13.149Z,10.50
2019-01-06T06:41:07.421Z,10.30
2019-01-06T06:42:16.561Z,9.60
2019-01-06T06:43:09.381Z,10.05
2019-01-06T06:44:06.026Z,10.25
2019-01-06T06:44:58.527Z,9.63
2019-01-06T06:45:51.657Z,9.90
2019-01-06T06:46:54.445Z,10.05
2019-01-06T06:47:47.172Z,12.18
2019-01-06T06:48:41.418Z,10.80
2019-01-06T06:49:43.953Z,10.43
2019-01-06T06:50:36.824Z,9.33
2019-01-06T06:51:37.425Z,10.53
2019-01-06T06:52:36.191Z,9.85
2019-01-06T06:53:35.699Z,10.05
2019-01-06T06:54:28.325Z,10.30
2019-01-06T06:55:28.104Z,10.40
2019-01-06T06:56:34.028Z,10.50
2019-01-06T06:58:15.512Z,10.18
2019-01-06T06:59:10.037Z,10.10
2019-01-06T07:00:48.339Z,10.23
2019-01-06T07:02:28.632Z,10.40
2019-01-06T07:03:40.504Z,9.40
2019-01-06T07:04:33.478Z,9.73
2019-01-06T07:05:39.792Z,9.88
2019-01-06T07:06:32.812Z,11.08
2019-01-06T07:07:25.552Z,10.98
2019-01-06T07:08:28.994Z,11.73
2019-01-06T07:09:22.134Z,10.70
2019-01-06T07:10:16.241Z,10.72
2019-01-06T07:11:18.908Z,11.28
2019-01-06T07:12:24.434Z,12.33
2019-01-06T07:13:17.264Z,11.75
2019-01-06T07:14:13.408Z,11.57
2019-01-06T07:15:00.442Z,11.55
2019-01-06T07:15:52.757Z,12.05
2019-01-06T07:17:21.608Z,13.15
2019-01-06T07:18:26.448Z,12.10
2019-01-06T07:19:23.175Z,11.00
2019-01-06T07:20:29.404Z,10.72
2019-01-06T07:21:26.228Z,11.90
2019-01-06T07:22:32.472Z,11.68
2019-01-06T07:23:25.336Z,11.20
2019-01-06T07:24:27.996Z,11.57
2019-01-06T07:25:22.059Z,10.53
2019-01-06T07:26:28.302Z,11.95
2019-01-06T07:27:21.299Z,12.00
2019-01-06T07:28:14.556Z,12.10
2019-01-06T07:29:07.313Z,12.10
2019-01-06T07:30:04.629Z,13.38
2019-01-06T07:31:01.717Z,11.97
2019-01-06T07:31:51.000Z,12.20
2019-01-06T07:32:47.701Z,12.13
2019-01-06T07:33:41.468Z,12.58
2019-01-06T07:34:38.745Z,13.65
2019-01-06T07:35:51.322Z,12.13
2019-01-06T07:36:57.469Z,11.28
2019-01-06T07:38:06.389Z,11.68
2019-01-06T07:38:58.896Z,11.63
2019-01-06T07:39:59.561Z,12.15
2019-01-06T07:40:59.006Z,11.70
2019-01-06T07:42:02.564Z,12.15
2019-01-06T07:42:49.363Z,12.70
2019-01-06T07:43:58.532Z,12.65
2019-01-06T07:44:55.426Z,13.62
2019-01-06T07:45:55.991Z,12.37
2019-01-06T07:46:54.419Z,13.00
2019-01-06T07:47:48.388Z,12.65
2019-01-06T07:48:38.921Z,14.15
2019-01-06T07:49:32.552Z,13.22
2019-01-06T07:50:24.523Z,13.18
2019-01-06T07:51:12.266Z,14.45
2019-01-06T07:52:04.704Z,14.28
2019-01-06T07:53:05.327Z,13.72
2019-01-06T07:53:58.967Z,13.45
2019-01-06T07:55:01.964Z,14.38
2019-01-06T07:55:55.002Z,14.60
2019-01-06T07:57:04.093Z,13.65
2019-01-06T07:58:07.815Z,14.68
2019-01-06T07:59:10.357Z,13.58
2019-01-06T08:00:16.717Z,14.33
2019-01-06T08:01:25.972Z,14.30
2019-01-06T08:02:32.807Z,14.55
2019-01-06T08:03:42.025Z,14.00
2019-01-06T08:04:27.361Z,14.55
2019-01-06T08:05:20.364Z,14.18
2019-01-06T08:06:29.553Z,14.65
2019-01-06T08:07:23.550Z,14.83
2019-01-06T08:08:15.785Z,14.45
2019-01-06T08:09:24.631Z,14.40
2019-01-06T08:10:30.579Z,14.70
2019-01-06T08:11:26.938Z,14.78
2019-01-06T08:12:19.061Z,15.00
2019-01-06T08:13:19.011Z,14.55
2019-01-06T08:14:12.691Z,15.08
2019-01-06T08:15:07.153Z,15.08
2019-01-06T08:15:59.668Z,15.83
2019-01-06T08:16:56.991Z,15.83
2019-01-06T08:17:59.581Z,16.10
2019-01-06T08:18:56.092Z,14.65
2019-01-06T08:19:48.899Z,14.65
2019-01-06T08:20:42.917Z,14.70
2019-01-06T08:21:35.890Z,14.83
2019-01-06T08:22:39.254Z,14.70
2019-01-06T08:23:33.042Z,14.75
2019-01-06T08:24:36.364Z,15.23
2019-01-06T08:25:45.222Z,15.10
2019-01-06T08:26:38.939Z,14.70
2019-01-06T08:27:45.141Z,16.05
2019-01-06T08:29:04.643Z,15.18
2019-01-06T08:30:20.406Z,14.47
2019-01-06T08:31:41.650Z,13.83
2019-01-06T08:32:42.517Z,13.95
2019-01-06T08:33:52.653Z,15.75
2019-01-06T08:34:55.891Z,14.55
2019-01-06T08:36:21.563Z,14.50
2019-01-06T08:37:24.106Z,13.70
2019-01-06T08:38:19.864Z,14.40
2019-01-06T08:39:16.455Z,15.85
2019-01-06T08:40:19.550Z,15.35
2019-01-06T08:41:13.141Z,15.10
2019-01-06T08:42:05.812Z,15.53
2019-01-06T08:43:01.505Z,14.95
2019-01-06T08:44:02.718Z,16.30
2019-01-06T08:45:08.624Z,15.53
2019-01-06T08:46:21.037Z,15.18
2019-01-06T08:47:23.846Z,14.63
2019-01-06T08:48:16.532Z,15.72
2019-01-06T08:49:11.036Z,15.55
2019-01-06T08:50:15.742Z,15.58
2019-01-06T08:51:31.983Z,14.90
2019-01-06T08:52:32.246Z,16.12
2019-01-06T08:53:27.691Z,16.05
2019-01-06T08:54:21.654Z,15.25
2019-01-06T08:55:16.682Z,15.40
2019-01-06T08:56:13.525Z,15.08
2019-01-06T08:57:16.609Z,14.78
2019-01-06T08:59:35.614Z,15.45
2019-01-06T09:00:28.769Z,16.15
2019-01-06T09:01:21.531Z,15.23
2019-01-06T09:02:14.698Z,16.35
2019-01-06T09:03:32.891Z,14.55
2019-01-06T09:04:42.589Z,14.43
2019-01-06T09:05:37.008Z,14.68
2019-01-06T09:06:29.591Z,14.95
2019-01-06T09:07:27.430Z,15.88
2019-01-06T09:08:20.816Z,15.40
2019-01-06T09:09:09.887Z,15.03
2019-01-06T09:10:04.167Z,15.03
2019-01-06T09:11:04.478Z,15.93
2019-01-06T09:12:07.749Z,16.35
2019-01-06T09:13:31.995Z,15.08
2019-01-06T09:14:45.732Z,15.38
2019-01-06T09:15:57.708Z,15.83
2019-01-06T09:17:00.704Z,15.20
2019-01-06T09:18:04.605Z,14.60
2019-01-06T09:19:05.164Z,14.00
2019-01-06T09:19:58.190Z,14.25
2019-01-06T09:20:55.451Z,14.28
2019-01-06T09:21:57.818Z,15.35
2019-01-06T09:22:56.699Z,14.70
2019-01-06T09:23:49.578Z,13.50
2019-01-06T09:24:42.805Z,13.98
2019-01-06T09:25:40.964Z,14.53
2019-01-06T09:26:30.874Z,13.70
2019-01-06T09:27:23.357Z,13.93
2019-01-06T09:28:19.759Z,14.45
2019-01-06T09:29:20.047Z,14.23
2019-01-06T09:30:12.741Z,14.03
2019-01-06T09:32:16.762Z,14.05
2019-01-06T09:33:17.056Z,15.00
2019-01-06T09:34:10.906Z,14.45
2019-01-06T09:35:16.856Z,14.50
2019-01-06T09:36:16.613Z,14.25
2019-01-06T09:37:11.039Z,13.48
2019-01-06T09:38:10.530Z,13.88
2019-01-06T09:39:18.537Z,13.83
2019-01-06T09:40:10.862Z,13.75
2019-01-06T09:41:17.742Z,13.88
2019-01-06T09:42:17.835Z,14.23
2019-01-06T09:43:07.343Z,13.68
2019-01-06T09:44:10.468Z,13.93
2019-01-06T09:45:25.630Z,13.68
2019-01-06T09:46:22.273Z,12.47
2019-01-06T09:47:30.850Z,13.08
2019-01-06T09:48:23.876Z,13.15
2019-01-06T09:49:26.540Z,13.53
2019-01-06T09:50:20.370Z,12.80
2019-01-06T09:51:14.692Z,12.60
2019-01-06T09:52:16.466Z,12.50
2019-01-06T09:53:13.249Z,13.08
2019-01-06T09:54:07.342Z,13.72
2019-01-06T09:55:01.042Z,13.03
2019-01-06T09:56:07.530Z,12.50
2019-01-06T09:57:00.001Z,11.73
2019-01-06T09:57:48.639Z,12.75
2019-01-06T09:58:35.537Z,11.65
2019-01-06T09:59:29.615Z,12.58
2019-01-06T10:00:32.564Z,12.95
2019-01-06T10:01:24.967Z,12.65
2019-01-06T10:02:09.867Z,12.70
2019-01-06T10:03:09.593Z,12.15
2019-01-06T10:04:02.235Z,11.88
2019-01-06T10:05:05.125Z,12.45
2019-01-06T10:06:16.243Z,11.93
2019-01-06T10:07:09.734Z,12.43
2019-01-06T10:08:07.081Z,12.30
2019-01-06T10:08:59.839Z,12.85
2019-01-06T10:09:45.878Z,12.28
2019-01-06T10:10:52.475Z,12.45
2019-01-06T10:11:44.851Z,12.10
2019-01-06T10:12:51.100Z,11.75
2019-01-06T10:13:57.001Z,11.50
2019-01-06T10:14:52.245Z,11.10
2019-01-06T10:15:58.219Z,11.25
2019-01-06T10:16:54.640Z,12.37
2019-01-06T10:17:46.794Z,11.70
2019-01-06T10:18:43.250Z,11.50
2019-01-06T10:19:29.542Z,11.45
2019-01-06T10:20:27.224Z,11.28
2019-01-06T10:21:36.820Z,11.68
2019-01-06T10:22:36.782Z,11.10
2019-01-06T10:23:31.121Z,11.90
2019-01-06T10:24:37.266Z,12.45
2019-01-06T10:25:30.990Z,11.43
2019-01-06T10:26:26.331Z,10.50
2019-01-06T10:27:26.646Z,11.43
2019-01-06T10:28:19.738Z,10.93
2019-01-06T10:29:12.210Z,11.78
2019-01-06T10:30:15.012Z,12.43
2019-01-06T10:31:07.424Z,11.50
2019-01-06T10:31:59.303Z,10.90
2019-01-06T10:32:52.325Z,11.50
2019-01-06T10:33:49.155Z,11.53
2019-01-06T10:34:52.362Z,11.60
2019-01-06T10:35:48.376Z,11.25
2019-01-06T10:38:39.484Z,12.70
2019-01-06T10:40:18.197Z,12.13
2019-01-06T10:41:35.695Z,11.75
2019-01-06T10:43:00.449Z,12.07
2019-01-06T10:44:22.596Z,11.50
2019-01-06T10:45:53.259Z,11.33
2019-01-06T10:47:16.101Z,11.18
2019-01-06T10:48:39.447Z,11.20
2019-01-06T10:50:24.375Z,9.88
2019-01-06T10:51:57.038Z,11.48
2019-01-06T10:53:32.750Z,11.10
2019-01-06T10:54:55.138Z,11.18
2019-01-06T10:56:37.836Z,10.88
2019-01-06T10:58:01.507Z,11.08
2019-01-06T10:59:40.118Z,11.65
2019-01-06T11:01:22.952Z,11.57
2019-01-06T11:02:45.875Z,12.50
2019-01-06T11:04:08.432Z,11.93
2019-01-06T11:05:34.511Z,12.30
2019-01-06T11:06:58.579Z,12.60
2019-01-06T11:08:29.043Z,12.35
2019-01-06T11:10:02.246Z,12.25
2019-01-06T11:11:38.317Z,12.70
2019-01-06T11:13:01.080Z,11.38
2019-01-06T11:14:30.550Z,11.55
2019-01-06T11:15:59.823Z,12.95
2019-01-06T11:17:39.299Z,11.95
2019-01-06T11:19:05.954Z,13.03
2019-01-06T11:20:32.552Z,13.03
2019-01-06T11:22:04.988Z,13.20
2019-01-06T11:23:42.661Z,12.40
2019-01-06T11:25:09.024Z,11.75
2019-01-06T11:26:38.871Z,12.50
2019-01-06T11:28:08.716Z,12.00
2019-01-06T11:29:32.130Z,12.95
2019-01-06T11:30:55.200Z,13.88
2019-01-06T11:32:24.891Z,15.08
2019-01-06T11:33:47.990Z,14.05
2019-01-06T11:35:21.137Z,12.63
2019-01-06T11:36:44.113Z,12.80
2019-01-06T11:38:06.363Z,12.85
2019-01-06T11:39:29.208Z,12.85
2019-01-06T11:41:12.105Z,12.65
2019-01-06T11:42:28.877Z,13.53
2019-01-06T11:43:44.268Z,13.43
2019-01-06T11:45:07.633Z,13.15
2019-01-06T11:46:30.398Z,12.75
2019-01-06T11:48:12.419Z,13.18
2019-01-06T11:49:39.326Z,13.80
2019-01-06T11:51:02.242Z,12.80
2019-01-06T11:52:26.076Z,12.37
2019-01-06T11:53:48.691Z,13.78
2019-01-06T11:55:22.372Z,12.65
2019-01-06T11:56:46.038Z,12.43
2019-01-06T11:58:09.402Z,13.55
2019-01-06T11:59:38.836Z,12.07
2019-01-06T12:01:04.750Z,12.35
2019-01-06T12:02:38.785Z,12.33
2019-01-06T12:03:55.515Z,12.88
2019-01-06T12:05:28.640Z,12.10
2019-01-06T12:06:51.066Z,11.93
2019-01-06T12:08:15.100Z,11.93
2019-01-06T12:09:37.364Z,11.15
2019-01-06T12:11:13.279Z,11.22
2019-01-06T12:12:43.269Z,11.43
2019-01-06T12:14:07.251Z,11.22
2019-01-06T12:15:36.837Z,10.78
2019-01-06T12:16:58.284Z,11.20
2019-01-06T12:18:22.327Z,11.63
2019-01-06T12:19:45.962Z,10.98
2019-01-06T12:21:03.970Z,11.57
2019-01-06T12:22:27.703Z,11.75
2019-01-06T12:23:49.471Z,10.50
2019-01-06T12:25:12.091Z,11.50
2019-01-06T12:26:38.835Z,11.05
2019-01-06T12:28:02.953Z,12.15
2019-01-06T12:29:25.206Z,11.20
2019-01-06T12:31:07.605Z,11.45
2019-01-06T12:32:47.045Z,10.63
2019-01-06T12:34:23.256Z,11.57
2019-01-06T12:35:46.562Z,11.55
2019-01-06T12:37:09.632Z,12.15
2019-01-06T12:38:40.459Z,11.65
2019-01-06T12:40:10.629Z,11.68
2019-01-06T12:41:31.656Z,12.03
2019-01-06T12:42:55.978Z,12.05
2019-01-06T12:44:18.957Z,12.13
2019-01-06T12:45:55.239Z,11.63
2019-01-06T12:47:19.258Z,12.30
2019-01-06T12:48:41.839Z,11.80
2019-01-06T12:50:09.252Z,12.30
2019-01-06T12:51:43.526Z,13.08
2019-01-06T12:53:05.013Z,11.45
2019-01-06T12:54:41.146Z,12.55
2019-01-06T12:56:12.705Z,13.38
2019-01-06T12:57:45.504Z,13.38
2019-01-06T12:59:08.474Z,13.43
2019-01-06T13:00:35.672Z,13.93
2019-01-06T13:01:57.921Z,12.70
2019-01-06T13:03:24.893Z,12.70
2019-01-06T13:05:04.550Z,14.03
2019-01-06T13:06:28.894Z,13.25
2019-01-06T13:07:55.410Z,13.70
2019-01-06T13:09:37.681Z,12.33
2019-01-06T13:11:07.433Z,12.60
2019-01-06T13:12:40.330Z,13.50
2019-01-06T13:14:03.228Z,12.65
2019-01-06T13:15:26.916Z,12.73
2019-01-06T13:16:50.649Z,12.93
2019-01-06T13:18:13.242Z,12.82
2019-01-06T13:19:43.723Z,12.33
2019-01-06T13:21:07.367Z,12.65
2019-01-06T13:22:31.872Z,12.93
2019-01-06T13:23:58.834Z,12.70
2019-01-06T13:25:37.836Z,13.72
2019-01-06T13:27:17.208Z,12.80
2019-01-06T13:28:39.669Z,12.58
2019-01-06T13:30:06.130Z,12.50
2019-01-06T13:31:33.508Z,11.53
2019-01-06T13:32:57.170Z,11.60
2019-01-06T13:34:20.639Z,12.10
2019-01-06T13:35:43.690Z,11.80
2019-01-06T13:37:10.523Z,13.13
2019-01-06T13:38:29.097Z,14.15
2019-01-06T13:40:01.624Z,12.07
2019-01-06T13:41:24.130Z,11.38
2019-01-06T13:42:47.753Z,12.07
2019-01-06T13:44:24.020Z,12.78
2019-01-06T13:45:51.048Z,9.75